createdAt,value
2022-10-26T00:01:10.448Z,5.10
2022-10-26T00:03:38.570Z,10.40
2022-10-26T00:06:17.186Z,7.40
2022-10-26T00:08:44.581Z,9.07
2022-10-26T00:11:12.285Z,6.67
2022-10-26T00:13:39.877Z,5.80
2022-10-26T00:16:17.925Z,6.17
2022-10-26T00:18:45.513Z,7.67
2022-10-26T00:21:12.930Z,8.23
2022-10-26T00:23:40.228Z,11.70
2022-10-26T00:26:07.958Z,6.53
2022-10-26T00:28:35.137Z,6.07
2022-10-26T00:31:15.922Z,6.53
2022-10-26T00:33:42.741Z,8.97
2022-10-26T00:36:10.375Z,8.03
2022-10-26T00:38:37.713Z,8.93
2022-10-26T00:41:04.549Z,9.33
2022-10-26T00:43:31.182Z,6.10
2022-10-26T00:45:59.579Z,5.63
2022-10-26T00:48:29.682Z,7.87
2022-10-26T00:50:59.655Z,4.53
2022-10-26T00:53:27.155Z,4.30
2022-10-26T00:55:55.016Z,5.47
2022-10-26T00:58:22.885Z,7.00
2022-10-26T01:00:51.050Z,7.70
2022-10-26T01:03:18.344Z,5.03
2022-10-26T01:05:47.598Z,5.13
2022-10-26T01:08:16.945Z,9.93
2022-10-26T01:10:44.038Z,7.07
2022-10-26T01:13:11.507Z,7.30
2022-10-26T01:15:47.042Z,5.37
2022-10-26T01:18:23.939Z,9.10
2022-10-26T01:21:14.723Z,6.97
2022-10-26T01:23:49.911Z,5.20
2022-10-26T01:26:43.330Z,4.30
2022-10-26T01:29:39.044Z,10.20
2022-10-26T01:32:11.739Z,8.03
2022-10-26T01:34:52.332Z,9.47
2022-10-26T01:37:26.059Z,5.00
2022-10-26T01:40:02.014Z,10.83
2022-10-26T01:42:31.848Z,7.03
2022-10-26T01:45:03.384Z,6.17
2022-10-26T01:47:31.987Z,6.33
2022-10-26T01:50:00.606Z,5.53
2022-10-26T01:52:28.478Z,4.33
2022-10-26T01:55:27.544Z,6.93
2022-10-26T01:58:04.464Z,7.00
2022-10-26T02:00:36.205Z,7.63
2022-10-26T02:03:14.663Z,12.37
2022-10-26T02:05:51.281Z,4.40
2022-10-26T02:08:45.964Z,6.10
2022-10-26T02:11:20.170Z,6.80
2022-10-26T02:13:55.643Z,4.03
2022-10-26T02:16:32.271Z,7.10
2022-10-26T02:19:21.039Z,6.50
2022-10-26T02:21:51.824Z,6.50
2022-10-26T02:24:20.306Z,6.73
2022-10-26T02:26:49.212Z,7.43
2022-10-26T02:29:19.327Z,9.23
2022-10-26T02:31:48.585Z,6.07
2022-10-26T02:34:20.934Z,5.23
2022-10-26T02:36:49.341Z,7.03
2022-10-26T02:39:19.052Z,10.47
2022-10-26T02:41:47.889Z,3.90
2022-10-26T02:44:29.040Z,9.83
2022-10-26T02:46:56.759Z,5.93
2022-10-26T02:49:24.035Z,9.23
2022-10-26T02:52:02.188Z,5.27
2022-10-26T02:54:32.819Z,6.23
2022-10-26T02:57:10.431Z,4.33
2022-10-26T02:59:41.647Z,7.87
2022-10-26T03:02:08.922Z,7.07
2022-10-26T03:04:35.804Z,9.73
2022-10-26T03:07:02.655Z,6.90
2022-10-26T03:09:29.718Z,5.00
2022-10-26T03:11:56.493Z,6.00
2022-10-26T03:14:23.167Z,5.70
2022-10-26T03:19:21.557Z,6.63
2022-10-26T03:21:48.303Z,5.50
2022-10-26T03:24:14.913Z,8.10
2022-10-26T03:26:41.560Z,11.03
2022-10-26T03:29:08.946Z,10.37
2022-10-26T03:31:35.887Z,10.00
2022-10-26T03:34:02.629Z,10.50
2022-10-26T03:36:29.304Z,9.30
2022-10-26T03:38:55.927Z,10.90
2022-10-26T03:41:22.576Z,7.07
2022-10-26T03:43:49.244Z,6.70
2022-10-26T03:46:15.965Z,9.40
2022-10-26T03:48:42.725Z,12.17
2022-10-26T03:51:09.482Z,10.63
2022-10-26T03:53:36.153Z,9.10
2022-10-26T03:56:02.922Z,7.03
2022-10-26T03:58:29.598Z,6.33
2022-10-26T04:00:56.244Z,10.27
2022-10-26T04:03:22.905Z,9.23
2022-10-26T04:05:49.774Z,9.87
2022-10-26T04:08:16.427Z,9.30
2022-10-26T04:10:43.098Z,7.10
2022-10-26T04:13:11.660Z,7.37
2022-10-26T04:15:38.505Z,10.33
2022-10-26T04:18:05.212Z,8.40
2022-10-26T04:20:34.615Z,8.83
2022-10-26T04:23:04.142Z,12.03
2022-10-26T04:25:33.178Z,7.73
2022-10-26T04:28:01.637Z,8.20
2022-10-26T04:30:28.322Z,8.60
2022-10-26T04:32:54.974Z,11.00
2022-10-26T04:35:21.864Z,10.17
2022-10-26T04:37:48.863Z,8.87
2022-10-26T04:40:15.902Z,7.87
2022-10-26T04:42:43.124Z,7.70
2022-10-26T04:45:10.418Z,8.37
2022-10-26T04:47:37.338Z,9.97
2022-10-26T04:50:04.637Z,8.60
2022-10-26T04:52:31.343Z,9.57
2022-10-26T04:54:58.103Z,9.33
2022-10-26T04:57:24.800Z,8.37
2022-10-26T04:59:51.451Z,10.37
2022-10-26T05:02:18.257Z,10.80
2022-10-26T05:04:44.988Z,8.80
2022-10-26T05:07:11.648Z,9.40
2022-10-26T05:09:38.320Z,12.63
2022-10-26T05:12:05.246Z,11.73
2022-10-26T05:14:31.903Z,9.90
2022-10-26T05:16:58.560Z,11.60
2022-10-26T05:19:25.252Z,13.37
2022-10-26T05:21:53.381Z,14.93
2022-10-26T05:24:20.299Z,10.33
2022-10-26T05:26:46.955Z,13.30
2022-10-26T05:29:13.689Z,13.47
2022-10-26T05:31:40.368Z,10.70
2022-10-26T05:34:07.263Z,10.63
2022-10-26T05:36:33.914Z,10.00
2022-10-26T05:39:00.676Z,9.20
2022-10-26T05:41:27.358Z,9.53
2022-10-26T05:43:53.985Z,12.83
2022-10-26T05:46:20.657Z,13.47
2022-10-26T05:48:47.346Z,12.43
2022-10-26T05:51:14.264Z,10.90
2022-10-26T05:53:40.910Z,16.40
2022-10-26T05:56:24.760Z,10.87
2022-10-26T05:58:51.760Z,13.97
2022-10-26T06:01:21.483Z,14.03
2022-10-26T06:04:25.236Z,12.37
2022-10-26T06:06:54.727Z,11.07
2022-10-26T06:09:22.351Z,13.03
2022-10-26T06:14:16.540Z,9.70
2022-10-26T06:17:03.402Z,10.17
2022-10-26T06:19:53.134Z,9.23
2022-10-26T06:22:31.520Z,9.83
2022-10-26T06:25:13.244Z,7.77
2022-10-26T06:28:01.953Z,8.97
2022-10-26T06:30:28.756Z,7.50
2022-10-26T06:33:06.028Z,9.00
2022-10-26T06:36:01.283Z,9.00
2022-10-26T06:38:29.264Z,8.57
2022-10-26T06:40:57.322Z,6.50
2022-10-26T06:43:30.955Z,5.63
2022-10-26T06:46:05.807Z,6.87
2022-10-26T06:48:47.559Z,7.90
2022-10-26T06:51:16.689Z,10.67
2022-10-26T06:53:57.093Z,9.90
2022-10-26T06:56:24.781Z,11.57
2022-10-26T06:58:54.507Z,9.17
2022-10-26T07:01:21.292Z,11.53
2022-10-26T07:03:48.096Z,7.63
2022-10-26T07:06:14.787Z,7.23
2022-10-26T07:08:41.538Z,8.10
2022-10-26T07:11:09.362Z,6.43
2022-10-26T07:13:36.030Z,7.17
2022-10-26T07:16:02.694Z,8.53
2022-10-26T07:18:29.375Z,9.33
2022-10-26T07:20:58.405Z,7.33
2022-10-26T07:23:25.271Z,7.57
2022-10-26T07:25:52.006Z,5.70
2022-10-26T07:28:18.711Z,6.30
2022-10-26T07:30:45.505Z,7.50
2022-10-26T07:33:14.403Z,7.90
2022-10-26T07:35:41.122Z,7.93
2022-10-26T07:38:08.600Z,7.90
2022-10-26T07:40:37.067Z,8.20
2022-10-26T07:43:03.878Z,7.07
2022-10-26T07:45:30.989Z,10.38
2022-10-26T07:47:58.044Z,11.07
2022-10-26T07:50:25.424Z,7.45
2022-10-26T07:52:52.604Z,8.30
2022-10-26T07:55:20.270Z,6.93
2022-10-26T07:57:49.717Z,8.77
2022-10-26T08:00:21.358Z,10.05
2022-10-26T08:02:48.005Z,7.60
2022-10-26T08:05:14.674Z,9.55
2022-10-26T08:07:42.831Z,8.63
2022-10-26T08:10:10.722Z,7.78
2022-10-26T08:12:37.465Z,9.90
2022-10-26T08:15:05.056Z,7.40
2022-10-26T08:17:31.940Z,8.18
2022-10-26T08:19:59.065Z,6.80
2022-10-26T08:22:25.844Z,7.03
2022-10-26T08:24:52.518Z,10.13
2022-10-26T08:27:19.167Z,19.95
2022-10-26T08:29:45.866Z,19.95
2022-10-26T08:32:12.521Z,17.13
2022-10-26T08:34:39.188Z,11.25
2022-10-26T08:37:05.828Z,5.28
2022-10-26T08:39:32.647Z,7.82
2022-10-26T08:42:17.070Z,7.47
2022-10-26T08:44:49.566Z,8.60
2022-10-26T08:47:22.545Z,6.47
2022-10-26T08:49:57.784Z,9.88
2022-10-26T08:52:30.603Z,6.85
2022-10-26T08:55:00.305Z,7.63
2022-10-26T08:57:33.897Z,8.05
2022-10-26T09:00:06.921Z,9.95
2022-10-26T09:02:33.608Z,6.55
2022-10-26T09:05:01.660Z,9.73
2022-10-26T09:07:46.000Z,9.13
2022-10-26T09:10:33.231Z,7.15
2022-10-26T09:13:18.507Z,5.25
2022-10-26T09:15:57.571Z,6.50
2022-10-26T09:18:49.082Z,7.25
2022-10-26T09:21:26.747Z,9.60
2022-10-26T09:24:15.971Z,9.90
2022-10-26T09:29:42.529Z,10.88
2022-10-26T09:32:23.792Z,13.30
2022-10-26T09:34:57.991Z,12.77
2022-10-26T09:37:37.047Z,13.02
2022-10-26T09:40:31.527Z,11.45
2022-10-26T09:42:59.935Z,11.25
2022-10-26T09:45:36.775Z,8.18
2022-10-26T09:48:11.564Z,6.78
2022-10-26T09:50:42.247Z,13.85
2022-10-26T09:53:09.913Z,10.52
2022-10-26T09:55:43.756Z,10.80
2022-10-26T09:58:26.194Z,18.55
2022-10-26T10:00:53.995Z,9.80
2022-10-26T10:03:32.093Z,8.60
2022-10-26T10:06:28.122Z,19.35
2022-10-26T10:09:12.282Z,13.98
2022-10-26T10:11:40.337Z,6.88
2022-10-26T10:14:09.048Z,7.85
2022-10-26T10:16:36.465Z,10.30
2022-10-26T10:19:03.296Z,5.10
2022-10-26T10:21:44.220Z,13.50
2022-10-26T10:24:52.620Z,3.78
2022-10-26T10:27:19.836Z,5.45
2022-10-26T10:29:49.843Z,9.05
2022-10-26T10:32:30.380Z,5.75
2022-10-26T10:35:00.003Z,4.93
2022-10-26T10:37:26.642Z,5.78
2022-10-26T10:40:08.172Z,5.15
2022-10-26T10:42:38.741Z,4.65
2022-10-26T10:45:07.318Z,3.10
2022-10-26T10:47:35.976Z,6.13
2022-10-26T10:50:19.306Z,3.92
2022-10-26T10:52:46.885Z,5.03
2022-10-26T10:55:13.700Z,4.03
2022-10-26T10:57:58.857Z,4.20
2022-10-26T11:00:26.139Z,5.05
2022-10-26T11:03:24.865Z,7.90
2022-10-26T11:06:15.539Z,6.57
2022-10-26T11:09:05.124Z,4.70
2022-10-26T11:11:45.456Z,4.15
2022-10-26T11:14:25.145Z,3.85
2022-10-26T11:17:24.360Z,4.22
2022-10-26T11:19:55.990Z,3.95
2022-10-26T11:22:35.692Z,4.28
2022-10-26T11:25:18.862Z,4.32
2022-10-26T11:27:49.238Z,7.78
2022-10-26T11:30:20.586Z,5.93
2022-10-26T11:32:53.076Z,6.88
2022-10-26T11:35:45.468Z,4.15
2022-10-26T11:38:45.518Z,5.63
2022-10-26T11:41:25.817Z,4.50
2022-10-26T11:44:09.083Z,6.03
2022-10-26T11:46:45.964Z,5.10
2022-10-26T11:49:31.051Z,3.58
2022-10-26T11:52:14.630Z,6.00
2022-10-26T11:55:04.625Z,6.93
2022-10-26T11:57:35.025Z,6.28
2022-10-26T12:00:07.126Z,5.70
2022-10-26T12:02:40.432Z,6.00
2022-10-26T12:05:15.899Z,6.03
2022-10-26T12:07:57.754Z,7.00
2022-10-26T12:10:38.073Z,11.25
2022-10-26T12:13:31.911Z,7.88
2022-10-26T12:16:04.051Z,4.85
2022-10-26T12:18:53.835Z,7.00
2022-10-26T12:21:22.008Z,5.43
2022-10-26T12:23:57.626Z,4.75
2022-10-26T12:26:24.252Z,6.63
2022-10-26T12:29:02.922Z,7.30
2022-10-26T12:31:33.217Z,6.68
2022-10-26T12:34:00.685Z,5.10
2022-10-26T12:37:12.725Z,6.53
2022-10-26T12:39:41.699Z,8.25
2022-10-26T12:42:08.529Z,5.30
2022-10-26T12:44:41.373Z,4.43
2022-10-26T12:47:10.046Z,8.55
2022-10-26T12:50:07.891Z,8.50
2022-10-26T12:53:18.387Z,5.03
2022-10-26T12:55:54.943Z,5.53
2022-10-26T12:58:53.622Z,4.78
2022-10-26T13:02:00.686Z,6.53
2022-10-26T13:04:41.269Z,6.63
2022-10-26T13:07:27.458Z,3.92
2022-10-26T13:10:04.405Z,5.40
2022-10-26T13:12:53.046Z,3.58
2022-10-26T13:15:23.213Z,3.50
2022-10-26T13:17:59.677Z,7.85
2022-10-26T13:20:27.112Z,6.07
2022-10-26T13:22:54.465Z,7.90
2022-10-26T13:25:31.438Z,7.80
2022-10-26T13:27:59.793Z,6.88
2022-10-26T13:30:44.940Z,5.75
2022-10-26T13:33:24.320Z,4.03
2022-10-26T13:35:54.969Z,6.85
2022-10-26T13:38:24.329Z,6.32
2022-10-26T13:40:55.374Z,7.05
2022-10-26T13:43:25.079Z,7.43
2022-10-26T13:46:02.508Z,4.50
2022-10-26T13:48:39.755Z,6.65
2022-10-26T13:51:20.847Z,6.30
2022-10-26T13:54:25.134Z,3.65
2022-10-26T13:57:07.861Z,7.20
2022-10-26T13:59:39.363Z,4.65
2022-10-26T14:02:17.642Z,5.03
2022-10-26T14:04:51.551Z,7.72
2022-10-26T14:07:23.136Z,9.45
2022-10-26T14:09:59.018Z,7.57
2022-10-26T14:12:29.017Z,6.82
2022-10-26T14:15:03.336Z,5.22
2022-10-26T14:17:30.209Z,9.32
2022-10-26T14:19:56.999Z,5.10
2022-10-26T14:22:27.928Z,6.10
2022-10-26T14:24:57.165Z,5.30
2022-10-26T14:27:38.901Z,9.27
2022-10-26T14:30:24.183Z,5.63
2022-10-26T14:32:53.037Z,10.50
2022-10-26T14:35:26.831Z,9.60
2022-10-26T14:38:00.937Z,7.00
2022-10-26T14:40:31.414Z,5.63
2022-10-26T14:43:00.546Z,6.15
2022-10-26T14:45:48.116Z,3.28
2022-10-26T14:48:33.509Z,7.15
2022-10-26T14:51:10.715Z,6.78
2022-10-26T14:53:47.477Z,8.25
2022-10-26T14:56:37.543Z,4.88
2022-10-26T14:59:31.762Z,5.00
2022-10-26T15:01:59.955Z,4.30
2022-10-26T15:04:37.455Z,5.10
2022-10-26T15:07:13.093Z,4.80
2022-10-26T15:09:49.686Z,2.70
2022-10-26T15:12:37.140Z,5.88
2022-10-26T15:15:18.070Z,3.45
2022-10-26T15:17:53.971Z,3.08
2022-10-26T15:20:27.572Z,3.92
2022-10-26T15:23:00.221Z,4.28
2022-10-26T15:25:34.693Z,5.45
2022-10-26T15:28:21.694Z,6.25
2022-10-26T15:31:03.762Z,4.88
2022-10-26T15:33:31.935Z,4.97
2022-10-26T15:36:19.815Z,6.45
2022-10-26T15:38:50.247Z,9.50
2022-10-26T15:41:30.411Z,6.25
2022-10-26T15:44:01.246Z,5.47
2022-10-26T15:46:33.996Z,7.35
2022-10-26T15:49:05.872Z,8.25
2022-10-26T15:51:34.538Z,11.00
2022-10-26T15:54:05.049Z,6.55
2022-10-26T15:56:32.299Z,11.48
2022-10-26T15:58:59.338Z,13.63
2022-10-26T16:01:28.227Z,10.68
2022-10-26T16:03:55.323Z,11.50
2022-10-26T16:06:30.564Z,12.38
2022-10-26T16:09:00.260Z,9.90
2022-10-26T16:11:27.308Z,12.60
2022-10-26T16:13:56.113Z,10.65
2022-10-26T16:16:25.139Z,10.70
2022-10-26T16:19:11.904Z,11.75
2022-10-26T16:21:42.937Z,12.10
2022-10-26T16:24:10.044Z,9.25
2022-10-26T16:26:37.022Z,11.60
2022-10-26T16:29:03.808Z,11.75
2022-10-26T16:31:30.566Z,10.30
2022-10-26T16:34:01.640Z,10.75
2022-10-26T16:36:32.838Z,10.32
2022-10-26T16:38:59.657Z,12.40
2022-10-26T16:41:26.439Z,10.70
2022-10-26T16:43:53.290Z,14.25
2022-10-26T16:46:21.343Z,14.93
2022-10-26T16:48:49.715Z,15.43
2022-10-26T16:51:27.484Z,14.55
2022-10-26T16:53:56.180Z,13.70
2022-10-26T16:56:25.977Z,18.48
2022-10-26T16:58:52.995Z,19.55
2022-10-26T17:01:21.145Z,21.13
2022-10-26T17:03:49.821Z,23.73
2022-10-26T17:06:17.870Z,19.52
2022-10-26T17:08:44.744Z,24.85
2022-10-26T17:11:14.429Z,24.20
2022-10-26T17:13:41.948Z,21.33
2022-10-26T17:16:22.853Z,17.10
2022-10-26T17:18:50.509Z,17.88
2022-10-26T17:21:19.163Z,15.90
2022-10-26T17:23:46.223Z,22.10
2022-10-26T17:26:14.286Z,18.50
2022-10-26T17:28:42.118Z,16.10
2022-10-26T17:31:11.926Z,21.23
2022-10-26T17:33:40.450Z,22.73
2022-10-26T17:36:08.232Z,20.42
2022-10-26T17:38:39.934Z,17.85
2022-10-26T17:41:09.371Z,17.15
2022-10-26T17:43:38.046Z,16.42
2022-10-26T17:46:15.623Z,14.05
2022-10-26T17:48:42.798Z,15.98
2022-10-26T17:51:17.912Z,21.15
2022-10-26T17:53:48.855Z,16.65
2022-10-26T17:56:21.938Z,21.95
2022-10-26T17:58:53.696Z,20.27
2022-10-26T18:01:22.943Z,16.97
2022-10-26T18:03:49.899Z,17.50
2022-10-26T18:06:19.777Z,19.75
2022-10-26T18:08:46.602Z,23.93
2022-10-26T18:11:19.037Z,20.80
2022-10-26T18:13:47.757Z,22.00
2022-10-26T18:16:20.333Z,22.67
2022-10-26T18:18:50.164Z,27.47
2022-10-26T18:21:19.296Z,23.37
2022-10-26T18:23:46.736Z,26.47
2022-10-26T18:26:18.836Z,25.77
2022-10-26T18:28:46.946Z,21.20
2022-10-26T18:31:18.583Z,18.57
2022-10-26T18:33:45.555Z,18.93
2022-10-26T18:36:14.484Z,25.97
2022-10-26T18:38:41.595Z,24.50
2022-10-26T18:41:11.704Z,27.07
2022-10-26T18:43:43.139Z,24.93
2022-10-26T18:46:18.937Z,23.33
2022-10-26T18:48:48.222Z,23.83
2022-10-26T18:51:17.151Z,23.33
2022-10-26T18:53:46.308Z,19.50
2022-10-26T18:56:16.532Z,18.17
2022-10-26T18:58:45.450Z,21.07
2022-10-26T19:01:30.451Z,19.83
2022-10-26T19:04:05.086Z,19.20
2022-10-26T19:06:40.551Z,18.00
2022-10-26T19:09:09.129Z,18.23
2022-10-26T19:11:37.495Z,17.60
2022-10-26T19:14:04.514Z,18.60
2022-10-26T19:16:45.412Z,19.47
2022-10-26T19:19:13.248Z,21.30
2022-10-26T19:21:40.148Z,17.53
2022-10-26T19:24:12.649Z,15.17
2022-10-26T19:26:43.177Z,14.67
2022-10-26T19:29:15.814Z,10.53
2022-10-26T19:31:45.298Z,13.77
2022-10-26T19:34:13.464Z,13.33
2022-10-26T19:36:44.519Z,15.03
2022-10-26T19:39:12.832Z,19.47
2022-10-26T19:41:39.474Z,17.33
2022-10-26T19:44:07.703Z,19.13
2022-10-26T19:46:34.492Z,11.43
2022-10-26T19:49:02.130Z,16.30
2022-10-26T19:51:30.410Z,14.30
2022-10-26T19:54:03.890Z,14.13
2022-10-26T19:56:32.518Z,12.20
2022-10-26T19:58:59.833Z,10.40
2022-10-26T20:01:26.903Z,8.73
2022-10-26T20:03:53.612Z,13.70
2022-10-26T20:06:20.381Z,16.63
2022-10-26T20:08:49.217Z,16.10
2022-10-26T20:11:17.937Z,18.87
2022-10-26T20:13:45.870Z,15.30
2022-10-26T20:16:13.282Z,13.60
2022-10-26T20:18:44.133Z,14.63
2022-10-26T20:21:15.376Z,14.53
2022-10-26T20:23:42.966Z,15.70
2022-10-26T20:26:16.441Z,16.27
2022-10-26T20:28:52.973Z,16.93
2022-10-26T20:31:19.928Z,13.57
2022-10-26T20:33:50.745Z,17.07
2022-10-26T20:36:17.393Z,15.43
2022-10-26T20:38:44.262Z,13.33
2022-10-26T20:41:14.571Z,12.67
2022-10-26T20:43:41.726Z,14.77
2022-10-26T20:46:27.731Z,13.40
2022-10-26T20:48:55.201Z,17.80
2022-10-26T20:51:56.723Z,13.63
2022-10-26T20:54:39.284Z,19.08
2022-10-26T20:57:08.296Z,11.23
2022-10-26T20:59:45.127Z,13.60
2022-10-26T21:02:12.205Z,13.87
2022-10-26T21:04:38.906Z,15.97
2022-10-26T21:07:05.645Z,14.67
2022-10-26T21:09:35.698Z,11.77
2022-10-26T21:12:03.952Z,11.87
2022-10-26T21:14:30.747Z,10.27
2022-10-26T21:16:57.457Z,13.87
2022-10-26T21:19:24.116Z,7.57
2022-10-26T21:21:50.743Z,11.43
2022-10-26T21:24:17.376Z,11.50
2022-10-26T21:26:44.295Z,9.47
2022-10-26T21:29:11.047Z,8.63
2022-10-26T21:31:37.683Z,15.20
2022-10-26T21:34:04.625Z,11.93
2022-10-26T21:36:31.326Z,10.10
2022-10-26T21:38:58.038Z,11.90
2022-10-26T21:44:03.719Z,11.10
2022-10-26T21:46:37.971Z,10.03
2022-10-26T21:49:05.042Z,10.53
2022-10-26T21:51:31.694Z,8.13
2022-10-26T21:53:58.608Z,9.20
2022-10-26T21:56:25.270Z,14.50
2022-10-26T21:58:51.935Z,13.33
2022-10-26T22:01:21.230Z,19.17
2022-10-26T22:03:48.860Z,14.47
2022-10-26T22:08:49.717Z,20.67
2022-10-26T22:11:22.266Z,6.67
2022-10-26T22:13:50.084Z,9.83
2022-10-26T22:16:22.407Z,8.63
2022-10-26T22:18:50.316Z,13.30
2022-10-26T22:21:18.751Z,12.77
2022-10-26T22:23:46.222Z,7.17
2022-10-26T22:26:15.811Z,14.53
2022-10-26T22:28:44.144Z,11.43
2022-10-26T22:31:13.745Z,14.93
2022-10-26T22:33:41.371Z,9.53
2022-10-26T22:36:13.455Z,13.90
2022-10-26T22:38:40.911Z,13.37
2022-10-26T22:41:08.085Z,15.03
2022-10-26T22:43:34.889Z,28.07
2022-10-26T22:46:22.457Z,14.17
2022-10-26T22:49:00.848Z,15.67
2022-10-26T22:51:30.723Z,23.10
2022-10-26T22:54:00.146Z,19.27
2022-10-26T22:56:28.227Z,14.60
2022-10-26T22:58:55.091Z,7.40
2022-10-26T23:01:25.303Z,5.37
2022-10-26T23:03:53.545Z,14.93
2022-10-26T23:06:20.972Z,12.60
2022-10-26T23:08:47.797Z,15.90
2022-10-26T23:11:16.916Z,13.30
2022-10-26T23:13:43.772Z,15.87
2022-10-26T23:16:15.793Z,10.13
2022-10-26T23:18:42.537Z,19.10
2022-10-26T23:21:10.484Z,23.50
2022-10-26T23:23:37.840Z,16.67
2022-10-26T23:26:07.560Z,8.33
2022-10-26T23:28:35.208Z,18.97
2022-10-26T23:31:02.657Z,14.07
2022-10-26T23:33:29.370Z,10.57
2022-10-26T23:35:57.355Z,10.67
2022-10-26T23:38:24.654Z,7.80
2022-10-26T23:40:52.389Z,14.73
2022-10-26T23:43:19.212Z,20.53
2022-10-26T23:45:46.103Z,13.27
2022-10-26T23:48:13.614Z,13.17
2022-10-26T23:50:43.300Z,7.50
2022-10-26T23:53:11.211Z,10.53
2022-10-26T23:55:38.117Z,9.23
2022-10-26T23:58:05.563Z,10.07
